sensor_id;sensor_type;location;lat;lon;timestamp;P1;durP1;ratioP1;P2;durP2;ratioP2
27113;SDS011;14648;49.730;8.614;2023-08-24T00:00:55;2.60;;;1.90;;
27113;SDS011;14648;49.730;8.614;2023-08-24T00:03:20;2.47;;;2.17;;
27113;SDS011;14648;49.730;8.614;2023-08-24T00:05:47;5.90;;;2.30;;
27113;SDS011;14648;49.730;8.614;2023-08-24T00:08:13;2.03;;;1.90;;
27113;SDS011;14648;49.730;8.614;2023-08-24T00:10:39;2.47;;;2.27;;
27113;SDS011;14648;49.730;8.614;2023-08-24T00:13:08;2.07;;;1.87;;
27113;SDS011;14648;49.730;8.614;2023-08-24T00:15:34;2.13;;;2.03;;
27113;SDS011;14648;49.730;8.614;2023-08-24T00:18:04;5.17;;;2.30;;
27113;SDS011;14648;49.730;8.614;2023-08-24T00:20:30;1.70;;;1.60;;
27113;SDS011;14648;49.730;8.614;2023-08-24T00:23:00;2.70;;;2.50;;
27113;SDS011;14648;49.730;8.614;2023-08-24T00:25:25;3.30;;;2.60;;
27113;SDS011;14648;49.730;8.614;2023-08-24T00:27:52;2.50;;;1.90;;
27113;SDS011;14648;49.730;8.614;2023-08-24T00:30:18;2.60;;;2.40;;
27113;SDS011;14648;49.730;8.614;2023-08-24T00:32:44;2.20;;;1.87;;
27113;SDS011;14648;49.730;8.614;2023-08-24T00:35:10;6.33;;;2.00;;
27113;SDS011;14648;49.730;8.614;2023-08-24T00:37:36;1.87;;;1.70;;
27113;SDS011;14648;49.730;8.614;2023-08-24T00:40:03;2.77;;;2.07;;
27113;SDS011;14648;49.730;8.614;2023-08-24T00:42:37;2.90;;;2.17;;
27113;SDS011;14648;49.730;8.614;2023-08-24T00:45:05;2.50;;;2.30;;
27113;SDS011;14648;49.730;8.614;2023-08-24T00:47:32;2.40;;;2.30;;
27113;SDS011;14648;49.730;8.614;2023-08-24T00:50:02;2.60;;;2.40;;
27113;SDS011;14648;49.730;8.614;2023-08-24T00:52:28;2.40;;;2.23;;
27113;SDS011;14648;49.730;8.614;2023-08-24T00:54:57;2.83;;;2.07;;
27113;SDS011;14648;49.730;8.614;2023-08-24T00:57:25;4.83;;;2.63;;
27113;SDS011;14648;49.730;8.614;2023-08-24T00:59:52;2.30;;;2.10;;
27113;SDS011;14648;49.730;8.614;2023-08-24T01:02:17;2.57;;;2.00;;
27113;SDS011;14648;49.730;8.614;2023-08-24T01:04:43;2.53;;;2.40;;
27113;SDS011;14648;49.730;8.614;2023-08-24T01:07:12;1.77;;;1.67;;
27113;SDS011;14648;49.730;8.614;2023-08-24T01:09:38;4.87;;;2.30;;
27113;SDS011;14648;49.730;8.614;2023-08-24T01:12:07;3.63;;;2.40;;
27113;SDS011;14648;49.730;8.614;2023-08-24T01:14:50;3.00;;;2.80;;
27113;SDS011;14648;49.730;8.614;2023-08-24T01:17:28;4.23;;;2.80;;
27113;SDS011;14648;49.730;8.614;2023-08-24T01:19:56;3.00;;;2.47;;
27113;SDS011;14648;49.730;8.614;2023-08-24T01:28:04;2.60;;;2.40;;
27113;SDS011;14648;49.730;8.614;2023-08-24T01:30:31;3.50;;;2.37;;
27113;SDS011;14648;49.730;8.614;2023-08-24T01:32:59;3.73;;;2.70;;
27113;SDS011;14648;49.730;8.614;2023-08-24T01:35:29;2.87;;;2.60;;
27113;SDS011;14648;49.730;8.614;2023-08-24T01:37:56;2.63;;;2.43;;
27113;SDS011;14648;49.730;8.614;2023-08-24T01:40:30;2.67;;;2.07;;
27113;SDS011;14648;49.730;8.614;2023-08-24T01:43:11;4.90;;;2.27;;
27113;SDS011;14648;49.730;8.614;2023-08-24T01:45:39;2.10;;;1.73;;
27113;SDS011;14648;49.730;8.614;2023-08-24T01:48:07;3.13;;;2.40;;
27113;SDS011;14648;49.730;8.614;2023-08-24T01:50:35;2.63;;;2.43;;
27113;SDS011;14648;49.730;8.614;2023-08-24T01:53:02;2.10;;;2.00;;
27113;SDS011;14648;49.730;8.614;2023-08-24T01:55:28;5.90;;;3.23;;
27113;SDS011;14648;49.730;8.614;2023-08-24T01:57:55;1.87;;;1.77;;
27113;SDS011;14648;49.730;8.614;2023-08-24T02:00:21;4.17;;;2.97;;
27113;SDS011;14648;49.730;8.614;2023-08-24T02:02:47;2.80;;;2.60;;
27113;SDS011;14648;49.730;8.614;2023-08-24T02:05:13;4.33;;;3.27;;
27113;SDS011;14648;49.730;8.614;2023-08-24T02:07:39;2.47;;;2.27;;
27113;SDS011;14648;49.730;8.614;2023-08-24T02:10:05;12.53;;;2.80;;
27113;SDS011;14648;49.730;8.614;2023-08-24T02:12:32;4.20;;;2.30;;
27113;SDS011;14648;49.730;8.614;2023-08-24T02:14:58;2.80;;;2.60;;
27113;SDS011;14648;49.730;8.614;2023-08-24T02:17:23;2.50;;;2.30;;
27113;SDS011;14648;49.730;8.614;2023-08-24T02:19:51;3.10;;;2.87;;
27113;SDS011;14648;49.730;8.614;2023-08-24T02:22:17;2.70;;;2.50;;
27113;SDS011;14648;49.730;8.614;2023-08-24T02:24:43;3.90;;;2.30;;
27113;SDS011;14648;49.730;8.614;2023-08-24T02:27:08;3.70;;;3.23;;
27113;SDS011;14648;49.730;8.614;2023-08-24T02:29:34;2.47;;;2.27;;
27113;SDS011;14648;49.730;8.614;2023-08-24T02:32:00;2.63;;;2.43;;
27113;SDS011;14648;49.730;8.614;2023-08-24T02:34:25;4.00;;;3.00;;
27113;SDS011;14648;49.730;8.614;2023-08-24T02:36:51;2.93;;;2.73;;
27113;SDS011;14648;49.730;8.614;2023-08-24T02:39:17;4.70;;;3.07;;
27113;SDS011;14648;49.730;8.614;2023-08-24T02:41:43;3.20;;;2.90;;
27113;SDS011;14648;49.730;8.614;2023-08-24T02:44:08;7.53;;;3.20;;
27113;SDS011;14648;49.730;8.614;2023-08-24T02:46:34;10.23;;;3.00;;
27113;SDS011;14648;49.730;8.614;2023-08-24T02:49:02;3.23;;;2.90;;
27113;SDS011;14648;49.730;8.614;2023-08-24T02:51:28;4.00;;;2.67;;
27113;SDS011;14648;49.730;8.614;2023-08-24T02:53:54;6.77;;;3.53;;
27113;SDS011;14648;49.730;8.614;2023-08-24T02:56:19;3.53;;;2.60;;
27113;SDS011;14648;49.730;8.614;2023-08-24T02:58:45;2.40;;;2.20;;
27113;SDS011;14648;49.730;8.614;2023-08-24T03:01:11;2.87;;;2.63;;
27113;SDS011;14648;49.730;8.614;2023-08-24T03:03:38;4.60;;;2.60;;
27113;SDS011;14648;49.730;8.614;2023-08-24T03:06:04;3.23;;;2.97;;
27113;SDS011;14648;49.730;8.614;2023-08-24T03:08:32;2.80;;;2.60;;
27113;SDS011;14648;49.730;8.614;2023-08-24T03:11:00;2.97;;;2.30;;
27113;SDS011;14648;49.730;8.614;2023-08-24T03:13:26;2.87;;;2.67;;
27113;SDS011;14648;49.730;8.614;2023-08-24T03:15:55;3.33;;;3.10;;
27113;SDS011;14648;49.730;8.614;2023-08-24T03:18:21;2.60;;;2.40;;
27113;SDS011;14648;49.730;8.614;2023-08-24T03:20:47;2.33;;;2.13;;
27113;SDS011;14648;49.730;8.614;2023-08-24T03:23:14;12.00;;;2.90;;
27113;SDS011;14648;49.730;8.614;2023-08-24T03:25:41;2.73;;;2.53;;
27113;SDS011;14648;49.730;8.614;2023-08-24T03:28:08;3.03;;;2.20;;
27113;SDS011;14648;49.730;8.614;2023-08-24T03:30:35;4.43;;;3.00;;
27113;SDS011;14648;49.730;8.614;2023-08-24T03:33:02;3.23;;;2.57;;
27113;SDS011;14648;49.730;8.614;2023-08-24T03:35:30;3.03;;;2.80;;
27113;SDS011;14648;49.730;8.614;2023-08-24T03:37:56;2.57;;;1.87;;
27113;SDS011;14648;49.730;8.614;2023-08-24T03:40:22;2.80;;;2.50;;
27113;SDS011;14648;49.730;8.614;2023-08-24T03:42:48;2.33;;;2.10;;
27113;SDS011;14648;49.730;8.614;2023-08-24T03:45:14;3.53;;;2.23;;
27113;SDS011;14648;49.730;8.614;2023-08-24T03:47:39;3.33;;;3.10;;
27113;SDS011;14648;49.730;8.614;2023-08-24T03:50:06;2.57;;;2.37;;
27113;SDS011;14648;49.730;8.614;2023-08-24T03:52:32;5.33;;;3.20;;
27113;SDS011;14648;49.730;8.614;2023-08-24T03:54:58;8.73;;;3.10;;
27113;SDS011;14648;49.730;8.614;2023-08-24T03:57:24;5.37;;;2.80;;
27113;SDS011;14648;49.730;8.614;2023-08-24T03:59:49;3.37;;;2.60;;
27113;SDS011;14648;49.730;8.614;2023-08-24T04:02:15;4.50;;;2.70;;
27113;SDS011;14648;49.730;8.614;2023-08-24T04:04:41;7.03;;;3.53;;
27113;SDS011;14648;49.730;8.614;2023-08-24T04:07:07;7.90;;;3.70;;
27113;SDS011;14648;49.730;8.614;2023-08-24T04:09:32;9.80;;;3.47;;
27113;SDS011;14648;49.730;8.614;2023-08-24T04:11:58;3.03;;;2.73;;
27113;SDS011;14648;49.730;8.614;2023-08-24T04:14:24;3.47;;;3.20;;
27113;SDS011;14648;49.730;8.614;2023-08-24T04:16:49;3.20;;;2.87;;
27113;SDS011;14648;49.730;8.614;2023-08-24T04:19:15;3.10;;;2.83;;
27113;SDS011;14648;49.730;8.614;2023-08-24T04:21:40;4.17;;;2.80;;
27113;SDS011;14648;49.730;8.614;2023-08-24T04:24:06;4.30;;;3.70;;
27113;SDS011;14648;49.730;8.614;2023-08-24T04:26:32;4.60;;;2.70;;
27113;SDS011;14648;49.730;8.614;2023-08-24T04:28:58;5.20;;;2.77;;
27113;SDS011;14648;49.730;8.614;2023-08-24T04:31:23;3.93;;;3.07;;
27113;SDS011;14648;49.730;8.614;2023-08-24T04:33:49;3.67;;;3.20;;
27113;SDS011;14648;49.730;8.614;2023-08-24T04:36:14;3.33;;;3.07;;
27113;SDS011;14648;49.730;8.614;2023-08-24T04:38:40;6.60;;;4.00;;
27113;SDS011;14648;49.730;8.614;2023-08-24T04:41:08;2.47;;;2.27;;
27113;SDS011;14648;49.730;8.614;2023-08-24T04:43:34;3.33;;;2.80;;
27113;SDS011;14648;49.730;8.614;2023-08-24T04:46:01;4.63;;;2.80;;
27113;SDS011;14648;49.730;8.614;2023-08-24T04:48:27;2.77;;;2.40;;
27113;SDS011;14648;49.730;8.614;2023-08-24T04:50:57;3.33;;;3.03;;
27113;SDS011;14648;49.730;8.614;2023-08-24T04:53:24;2.73;;;2.53;;
27113;SDS011;14648;49.730;8.614;2023-08-24T04:55:51;2.53;;;2.33;;
27113;SDS011;14648;49.730;8.614;2023-08-24T04:58:17;4.83;;;3.40;;
27113;SDS011;14648;49.730;8.614;2023-08-24T05:00:42;3.17;;;2.87;;
27113;SDS011;14648;49.730;8.614;2023-08-24T05:03:08;2.57;;;2.37;;
27113;SDS011;14648;49.730;8.614;2023-08-24T05:05:35;2.80;;;2.60;;
27113;SDS011;14648;49.730;8.614;2023-08-24T05:08:04;2.77;;;2.57;;
27113;SDS011;14648;49.730;8.614;2023-08-24T05:10:36;3.90;;;3.03;;
27113;SDS011;14648;49.730;8.614;2023-08-24T05:13:02;3.57;;;3.27;;
27113;SDS011;14648;49.730;8.614;2023-08-24T05:15:28;3.37;;;3.07;;
27113;SDS011;14648;49.730;8.614;2023-08-24T05:17:54;2.90;;;2.70;;
27113;SDS011;14648;49.730;8.614;2023-08-24T05:20:24;5.60;;;2.47;;
27113;SDS011;14648;49.730;8.614;2023-08-24T05:22:51;3.20;;;2.90;;
27113;SDS011;14648;49.730;8.614;2023-08-24T05:25:16;3.80;;;2.90;;
27113;SDS011;14648;49.730;8.614;2023-08-24T05:27:43;3.93;;;3.10;;
27113;SDS011;14648;49.730;8.614;2023-08-24T05:30:09;3.03;;;2.83;;
27113;SDS011;14648;49.730;8.614;2023-08-24T05:32:35;4.60;;;3.07;;
27113;SDS011;14648;49.730;8.614;2023-08-24T05:35:07;5.10;;;2.53;;
27113;SDS011;14648;49.730;8.614;2023-08-24T05:37:34;3.37;;;3.10;;
27113;SDS011;14648;49.730;8.614;2023-08-24T05:40:00;3.20;;;2.70;;
27113;SDS011;14648;49.730;8.614;2023-08-24T05:42:27;4.60;;;3.30;;
27113;SDS011;14648;49.730;8.614;2023-08-24T05:44:53;4.33;;;3.93;;
27113;SDS011;14648;49.730;8.614;2023-08-24T05:47:19;4.80;;;3.40;;
27113;SDS011;14648;49.730;8.614;2023-08-24T05:49:44;3.17;;;2.93;;
27113;SDS011;14648;49.730;8.614;2023-08-24T05:52:10;3.10;;;2.80;;
27113;SDS011;14648;49.730;8.614;2023-08-24T05:54:37;2.73;;;2.53;;
27113;SDS011;14648;49.730;8.614;2023-08-24T05:57:03;3.33;;;3.03;;
27113;SDS011;14648;49.730;8.614;2023-08-24T05:59:29;6.27;;;3.73;;
27113;SDS011;14648;49.730;8.614;2023-08-24T06:01:56;4.40;;;3.20;;
27113;SDS011;14648;49.730;8.614;2023-08-24T06:04:21;2.93;;;2.73;;
27113;SDS011;14648;49.730;8.614;2023-08-24T06:06:47;4.53;;;2.97;;
27113;SDS011;14648;49.730;8.614;2023-08-24T06:09:12;5.47;;;3.87;;
27113;SDS011;14648;49.730;8.614;2023-08-24T06:11:40;3.83;;;3.40;;
27113;SDS011;14648;49.730;8.614;2023-08-24T06:14:05;4.27;;;3.87;;
27113;SDS011;14648;49.730;8.614;2023-08-24T06:16:32;3.90;;;3.50;;
27113;SDS011;14648;49.730;8.614;2023-08-24T06:18:57;3.10;;;2.90;;
27113;SDS011;14648;49.730;8.614;2023-08-24T06:21:23;6.67;;;2.83;;
27113;SDS011;14648;49.730;8.614;2023-08-24T06:23:49;3.80;;;3.23;;
27113;SDS011;14648;49.730;8.614;2023-08-24T06:26:14;5.27;;;3.87;;
27113;SDS011;14648;49.730;8.614;2023-08-24T06:28:40;3.83;;;3.10;;
27113;SDS011;14648;49.730;8.614;2023-08-24T06:31:06;6.43;;;3.27;;
27113;SDS011;14648;49.730;8.614;2023-08-24T06:33:34;3.70;;;3.40;;
27113;SDS011;14648;49.730;8.614;2023-08-24T06:36:02;4.87;;;3.87;;
27113;SDS011;14648;49.730;8.614;2023-08-24T06:38:32;3.20;;;3.00;;
27113;SDS011;14648;49.730;8.614;2023-08-24T06:40:58;6.37;;;4.23;;
27113;SDS011;14648;49.730;8.614;2023-08-24T06:43:25;3.50;;;3.30;;
27113;SDS011;14648;49.730;8.614;2023-08-24T06:45:51;3.67;;;3.37;;
27113;SDS011;14648;49.730;8.614;2023-08-24T06:48:17;4.73;;;3.63;;
27113;SDS011;14648;49.730;8.614;2023-08-24T06:50:43;9.13;;;3.27;;
27113;SDS011;14648;49.730;8.614;2023-08-24T06:53:09;6.87;;;3.97;;
27113;SDS011;14648;49.730;8.614;2023-08-24T06:55:34;4.70;;;4.27;;
27113;SDS011;14648;49.730;8.614;2023-08-24T06:58:01;3.63;;;3.17;;
27113;SDS011;14648;49.730;8.614;2023-08-24T07:00:30;3.80;;;3.37;;
27113;SDS011;14648;49.730;8.614;2023-08-24T07:02:56;4.40;;;3.50;;
27113;SDS011;14648;49.730;8.614;2023-08-24T07:05:25;4.20;;;3.90;;
27113;SDS011;14648;49.730;8.614;2023-08-24T07:07:51;3.90;;;3.50;;
27113;SDS011;14648;49.730;8.614;2023-08-24T07:10:18;4.67;;;3.93;;
27113;SDS011;14648;49.730;8.614;2023-08-24T07:12:44;4.10;;;3.47;;
27113;SDS011;14648;49.730;8.614;2023-08-24T07:15:11;2.80;;;2.60;;
27113;SDS011;14648;49.730;8.614;2023-08-24T07:17:38;6.10;;;2.83;;
27113;SDS011;14648;49.730;8.614;2023-08-24T07:20:04;3.10;;;2.90;;
27113;SDS011;14648;49.730;8.614;2023-08-24T07:22:31;2.67;;;2.47;;
27113;SDS011;14648;49.730;8.614;2023-08-24T07:24:57;3.57;;;3.10;;
27113;SDS011;14648;49.730;8.614;2023-08-24T07:27:23;2.40;;;2.20;;
27113;SDS011;14648;49.730;8.614;2023-08-24T07:29:48;2.00;;;1.87;;
27113;SDS011;14648;49.730;8.614;2023-08-24T07:32:14;7.33;;;2.37;;
27113;SDS011;14648;49.730;8.614;2023-08-24T07:34:40;5.20;;;3.70;;
27113;SDS011;14648;49.730;8.614;2023-08-24T07:37:06;4.13;;;3.40;;
27113;SDS011;14648;49.730;8.614;2023-08-24T07:39:32;3.70;;;3.40;;
27113;SDS011;14648;49.730;8.614;2023-08-24T07:41:58;2.80;;;2.60;;
27113;SDS011;14648;49.730;8.614;2023-08-24T07:44:24;2.50;;;2.30;;
27113;SDS011;14648;49.730;8.614;2023-08-24T07:46:50;1.93;;;1.83;;
27113;SDS011;14648;49.730;8.614;2023-08-24T07:49:15;2.07;;;1.97;;
27113;SDS011;14648;49.730;8.614;2023-08-24T07:51:41;1.97;;;1.70;;
27113;SDS011;14648;49.730;8.614;2023-08-24T07:54:08;2.13;;;1.93;;
27113;SDS011;14648;49.730;8.614;2023-08-24T07:56:34;3.33;;;1.93;;
27113;SDS011;14648;49.730;8.614;2023-08-24T07:59:01;2.17;;;1.97;;
27113;SDS011;14648;49.730;8.614;2023-08-24T08:01:26;2.10;;;1.93;;
27113;SDS011;14648;49.730;8.614;2023-08-24T08:03:52;3.70;;;2.50;;
27113;SDS011;14648;49.730;8.614;2023-08-24T08:06:18;2.30;;;2.20;;
27113;SDS011;14648;49.730;8.614;2023-08-24T08:08:43;2.03;;;1.80;;
27113;SDS011;14648;49.730;8.614;2023-08-24T08:11:11;1.80;;;1.70;;
27113;SDS011;14648;49.730;8.614;2023-08-24T08:13:37;2.23;;;2.13;;
27113;SDS011;14648;49.730;8.614;2023-08-24T08:16:06;3.47;;;2.00;;
27113;SDS011;14648;49.730;8.614;2023-08-24T08:18:32;1.50;;;1.40;;
27113;SDS011;14648;49.730;8.614;2023-08-24T08:20:59;1.93;;;1.60;;
27113;SDS011;14648;49.730;8.614;2023-08-24T08:23:25;1.73;;;1.63;;
27113;SDS011;14648;49.730;8.614;2023-08-24T08:25:51;1.57;;;1.17;;
27113;SDS011;14648;49.730;8.614;2023-08-24T08:28:17;4.70;;;1.30;;
27113;SDS011;14648;49.730;8.614;2023-08-24T08:30:43;2.10;;;1.40;;
27113;SDS011;14648;49.730;8.614;2023-08-24T08:33:10;1.43;;;1.33;;
27113;SDS011;14648;49.730;8.614;2023-08-24T08:35:37;2.30;;;1.83;;
27113;SDS011;14648;49.730;8.614;2023-08-24T08:38:05;1.67;;;1.27;;
27113;SDS011;14648;49.730;8.614;2023-08-24T08:40:32;1.50;;;1.40;;
27113;SDS011;14648;49.730;8.614;2023-08-24T08:43:02;1.70;;;1.30;;
27113;SDS011;14648;49.730;8.614;2023-08-24T08:45:28;1.83;;;1.73;;
27113;SDS011;14648;49.730;8.614;2023-08-24T08:47:57;1.93;;;1.73;;
27113;SDS011;14648;49.730;8.614;2023-08-24T08:50:26;1.47;;;1.37;;
27113;SDS011;14648;49.730;8.614;2023-08-24T08:52:52;2.50;;;1.40;;
27113;SDS011;14648;49.730;8.614;2023-08-24T08:55:18;1.73;;;1.47;;
27113;SDS011;14648;49.730;8.614;2023-08-24T08:57:48;1.40;;;1.30;;
27113;SDS011;14648;49.730;8.614;2023-08-24T09:00:17;1.50;;;1.40;;
27113;SDS011;14648;49.730;8.614;2023-08-24T09:02:44;1.80;;;1.70;;
27113;SDS011;14648;49.730;8.614;2023-08-24T09:05:11;1.20;;;1.10;;
27113;SDS011;14648;49.730;8.614;2023-08-24T09:07:40;3.20;;;2.70;;
27113;SDS011;14648;49.730;8.614;2023-08-24T09:10:06;3.00;;;1.83;;
27113;SDS011;14648;49.730;8.614;2023-08-24T09:12:33;2.60;;;2.22;;
27113;SDS011;14648;49.730;8.614;2023-08-24T09:15:02;1.90;;;1.80;;
27113;SDS011;14648;49.730;8.614;2023-08-24T09:17:29;1.67;;;1.58;;
27113;SDS011;14648;49.730;8.614;2023-08-24T09:19:57;1.87;;;1.77;;
27113;SDS011;14648;49.730;8.614;2023-08-24T09:22:24;2.65;;;1.90;;
27113;SDS011;14648;49.730;8.614;2023-08-24T09:24:50;2.40;;;2.20;;
27113;SDS011;14648;49.730;8.614;2023-08-24T09:27:16;1.80;;;1.70;;
27113;SDS011;14648;49.730;8.614;2023-08-24T09:29:47;1.75;;;1.55;;
27113;SDS011;14648;49.730;8.614;2023-08-24T09:32:15;2.38;;;2.08;;
27113;SDS011;14648;49.730;8.614;2023-08-24T09:34:50;2.38;;;1.60;;
27113;SDS011;14648;49.730;8.614;2023-08-24T09:37:16;2.47;;;2.10;;
27113;SDS011;14648;49.730;8.614;2023-08-24T09:39:45;2.50;;;1.90;;
27113;SDS011;14648;49.730;8.614;2023-08-24T09:42:11;1.98;;;1.83;;
27113;SDS011;14648;49.730;8.614;2023-08-24T09:44:38;2.38;;;1.85;;
27113;SDS011;14648;49.730;8.614;2023-08-24T09:47:11;2.28;;;1.52;;
27113;SDS011;14648;49.730;8.614;2023-08-24T09:49:37;1.58;;;1.48;;
27113;SDS011;14648;49.730;8.614;2023-08-24T09:52:06;1.60;;;1.50;;
27113;SDS011;14648;49.730;8.614;2023-08-24T09:54:35;2.00;;;1.90;;
27113;SDS011;14648;49.730;8.614;2023-08-24T09:57:03;1.80;;;1.70;;
27113;SDS011;14648;49.730;8.614;2023-08-24T09:59:32;2.00;;;1.90;;
27113;SDS011;14648;49.730;8.614;2023-08-24T10:02:00;1.70;;;1.60;;
27113;SDS011;14648;49.730;8.614;2023-08-24T10:04:33;2.20;;;1.60;;
27113;SDS011;14648;49.730;8.614;2023-08-24T10:07:03;1.48;;;1.38;;
27113;SDS011;14648;49.730;8.614;2023-08-24T10:09:39;2.45;;;1.20;;
27113;SDS011;14648;49.730;8.614;2023-08-24T10:12:31;1.90;;;1.70;;
27113;SDS011;14648;49.730;8.614;2023-08-24T10:15:04;1.83;;;1.73;;
27113;SDS011;14648;49.730;8.614;2023-08-24T10:17:32;2.10;;;1.75;;
27113;SDS011;14648;49.730;8.614;2023-08-24T10:20:01;2.92;;;2.10;;
27113;SDS011;14648;49.730;8.614;2023-08-24T10:22:31;2.00;;;1.38;;
27113;SDS011;14648;49.730;8.614;2023-08-24T10:24:59;1.83;;;1.73;;
27113;SDS011;14648;49.730;8.614;2023-08-24T10:27:26;1.80;;;1.70;;
27113;SDS011;14648;49.730;8.614;2023-08-24T10:29:53;1.83;;;1.55;;
27113;SDS011;14648;49.730;8.614;2023-08-24T10:32:22;3.03;;;1.80;;
27113;SDS011;14648;49.730;8.614;2023-08-24T10:34:49;2.08;;;1.88;;
27113;SDS011;14648;49.730;8.614;2023-08-24T10:37:15;3.13;;;2.05;;
27113;SDS011;14648;49.730;8.614;2023-08-24T10:39:44;2.13;;;2.00;;
27113;SDS011;14648;49.730;8.614;2023-08-24T10:42:12;2.20;;;1.90;;
27113;SDS011;14648;49.730;8.614;2023-08-24T10:44:39;1.88;;;1.75;;
27113;SDS011;14648;49.730;8.614;2023-08-24T10:47:13;1.65;;;1.55;;
27113;SDS011;14648;49.730;8.614;2023-08-24T10:55:01;3.13;;;2.33;;
27113;SDS011;14648;49.730;8.614;2023-08-24T10:57:35;3.50;;;1.83;;
27113;SDS011;14648;49.730;8.614;2023-08-24T11:00:09;1.60;;;1.50;;
27113;SDS011;14648;49.730;8.614;2023-08-24T11:02:50;1.80;;;1.67;;
27113;SDS011;14648;49.730;8.614;2023-08-24T11:05:18;2.70;;;1.48;;
27113;SDS011;14648;49.730;8.614;2023-08-24T11:08:11;2.08;;;1.50;;
27113;SDS011;14648;49.730;8.614;2023-08-24T11:13:07;1.73;;;1.58;;
27113;SDS011;14648;49.730;8.614;2023-08-24T11:15:48;2.83;;;2.10;;
27113;SDS011;14648;49.730;8.614;2023-08-24T11:18:27;1.90;;;1.58;;
27113;SDS011;14648;49.730;8.614;2023-08-24T11:21:05;1.90;;;1.80;;
27113;SDS011;14648;49.730;8.614;2023-08-24T11:23:31;1.25;;;1.15;;
27113;SDS011;14648;49.730;8.614;2023-08-24T11:25:58;2.95;;;1.67;;
27113;SDS011;14648;49.730;8.614;2023-08-24T11:28:25;1.63;;;1.52;;
27113;SDS011;14648;49.730;8.614;2023-08-24T11:30:53;1.10;;;0.98;;
27113;SDS011;14648;49.730;8.614;2023-08-24T11:33:33;1.65;;;1.55;;
27113;SDS011;14648;49.730;8.614;2023-08-24T11:36:00;1.65;;;1.55;;
27113;SDS011;14648;49.730;8.614;2023-08-24T11:38:35;3.15;;;1.50;;
27113;SDS011;14648;49.730;8.614;2023-08-24T11:41:12;1.70;;;1.60;;
27113;SDS011;14648;49.730;8.614;2023-08-24T11:43:42;1.75;;;1.65;;
27113;SDS011;14648;49.730;8.614;2023-08-24T11:46:12;1.58;;;1.30;;
27113;SDS011;14648;49.730;8.614;2023-08-24T11:48:38;1.05;;;1.05;;
27113;SDS011;14648;49.730;8.614;2023-08-24T11:51:07;1.20;;;1.20;;
27113;SDS011;14648;49.730;8.614;2023-08-24T11:53:42;1.25;;;1.10;;
27113;SDS011;14648;49.730;8.614;2023-08-24T11:56:09;1.75;;;1.63;;
27113;SDS011;14648;49.730;8.614;2023-08-24T11:58:43;1.20;;;1.10;;
27113;SDS011;14648;49.730;8.614;2023-08-24T12:01:13;1.55;;;1.45;;
27113;SDS011;14648;49.730;8.614;2023-08-24T12:03:38;1.30;;;1.20;;
27113;SDS011;14648;49.730;8.614;2023-08-24T12:06:11;2.67;;;1.45;;
27113;SDS011;14648;49.730;8.614;2023-08-24T12:08:40;1.08;;;0.98;;
27113;SDS011;14648;49.730;8.614;2023-08-24T12:11:12;1.10;;;1.00;;
27113;SDS011;14648;49.730;8.614;2023-08-24T12:13:46;1.52;;;1.42;;
27113;SDS011;14648;49.730;8.614;2023-08-24T12:16:19;2.22;;;1.48;;
27113;SDS011;14648;49.730;8.614;2023-08-24T12:18:50;1.45;;;1.33;;
27113;SDS011;14648;49.730;8.614;2023-08-24T12:21:19;1.70;;;1.40;;
27113;SDS011;14648;49.730;8.614;2023-08-24T12:23:59;1.45;;;1.35;;
27113;SDS011;14648;49.730;8.614;2023-08-24T12:26:30;1.60;;;1.50;;
27113;SDS011;14648;49.730;8.614;2023-08-24T12:29:08;1.30;;;1.20;;
27113;SDS011;14648;49.730;8.614;2023-08-24T12:31:34;1.30;;;1.13;;
27113;SDS011;14648;49.730;8.614;2023-08-24T12:34:07;2.85;;;1.63;;
27113;SDS011;14648;49.730;8.614;2023-08-24T12:36:37;1.40;;;1.30;;
27113;SDS011;14648;49.730;8.614;2023-08-24T12:39:06;1.40;;;1.30;;
27113;SDS011;14648;49.730;8.614;2023-08-24T12:41:33;2.05;;;1.70;;
27113;SDS011;14648;49.730;8.614;2023-08-24T12:43:59;1.40;;;1.30;;
27113;SDS011;14648;49.730;8.614;2023-08-24T12:46:29;4.88;;;2.83;;
27113;SDS011;14648;49.730;8.614;2023-08-24T12:48:56;1.73;;;1.63;;
27113;SDS011;14648;49.730;8.614;2023-08-24T12:51:26;1.60;;;1.40;;
27113;SDS011;14648;49.730;8.614;2023-08-24T12:53:52;1.50;;;1.40;;
27113;SDS011;14648;49.730;8.614;2023-08-24T12:56:21;1.67;;;1.55;;
27113;SDS011;14648;49.730;8.614;2023-08-24T12:58:47;1.67;;;1.58;;
27113;SDS011;14648;49.730;8.614;2023-08-24T13:01:13;2.97;;;1.70;;
27113;SDS011;14648;49.730;8.614;2023-08-24T13:03:38;3.30;;;1.60;;
27113;SDS011;14648;49.730;8.614;2023-08-24T13:06:07;1.25;;;1.15;;
27113;SDS011;14648;49.730;8.614;2023-08-24T13:08:32;2.80;;;1.50;;
27113;SDS011;14648;49.730;8.614;2023-08-24T13:10:58;1.27;;;1.17;;
27113;SDS011;14648;49.730;8.614;2023-08-24T13:13:24;1.58;;;1.48;;
27113;SDS011;14648;49.730;8.614;2023-08-24T13:15:50;1.27;;;1.15;;
27113;SDS011;14648;49.730;8.614;2023-08-24T13:18:16;1.95;;;1.85;;
27113;SDS011;14648;49.730;8.614;2023-08-24T13:20:42;1.83;;;1.73;;
27113;SDS011;14648;49.730;8.614;2023-08-24T13:23:08;1.95;;;1.33;;
27113;SDS011;14648;49.730;8.614;2023-08-24T13:25:34;1.63;;;1.52;;
27113;SDS011;14648;49.730;8.614;2023-08-24T13:28:00;1.80;;;1.67;;
27113;SDS011;14648;49.730;8.614;2023-08-24T13:30:25;1.80;;;1.70;;
27113;SDS011;14648;49.730;8.614;2023-08-24T13:32:52;1.98;;;1.88;;
27113;SDS011;14648;49.730;8.614;2023-08-24T13:35:18;1.55;;;1.45;;
27113;SDS011;14648;49.730;8.614;2023-08-24T13:37:44;2.25;;;1.55;;
27113;SDS011;14648;49.730;8.614;2023-08-24T13:40:10;2.25;;;1.75;;
27113;SDS011;14648;49.730;8.614;2023-08-24T13:42:37;1.65;;;1.55;;
27113;SDS011;14648;49.730;8.614;2023-08-24T13:45:03;1.75;;;1.65;;
27113;SDS011;14648;49.730;8.614;2023-08-24T13:47:29;2.28;;;2.00;;
27113;SDS011;14648;49.730;8.614;2023-08-24T13:49:55;1.63;;;1.52;;
27113;SDS011;14648;49.730;8.614;2023-08-24T13:52:20;1.50;;;1.40;;
27113;SDS011;14648;49.730;8.614;2023-08-24T13:54:46;1.70;;;1.60;;
27113;SDS011;14648;49.730;8.614;2023-08-24T13:57:12;2.17;;;1.98;;
27113;SDS011;14648;49.730;8.614;2023-08-24T13:59:38;1.40;;;1.30;;
27113;SDS011;14648;49.730;8.614;2023-08-24T14:02:05;3.28;;;1.67;;
27113;SDS011;14648;49.730;8.614;2023-08-24T14:04:34;1.67;;;1.58;;
27113;SDS011;14648;49.730;8.614;2023-08-24T14:07:00;1.67;;;1.58;;
27113;SDS011;14648;49.730;8.614;2023-08-24T14:09:26;2.95;;;2.67;;
27113;SDS011;14648;49.730;8.614;2023-08-24T14:11:52;1.60;;;1.50;;
27113;SDS011;14648;49.730;8.614;2023-08-24T14:14:18;1.70;;;1.63;;
27113;SDS011;14648;49.730;8.614;2023-08-24T14:16:44;3.35;;;1.65;;
27113;SDS011;14648;49.730;8.614;2023-08-24T14:19:09;2.15;;;1.63;;
27113;SDS011;14648;49.730;8.614;2023-08-24T14:21:35;1.65;;;1.55;;
27113;SDS011;14648;49.730;8.614;2023-08-24T14:24:01;1.67;;;1.42;;
27113;SDS011;14648;49.730;8.614;2023-08-24T14:26:27;2.58;;;1.70;;
27113;SDS011;14648;49.730;8.614;2023-08-24T14:28:57;4.53;;;1.70;;
27113;SDS011;14648;49.730;8.614;2023-08-24T14:31:27;2.50;;;2.30;;
27113;SDS011;14648;49.730;8.614;2023-08-24T14:33:56;2.00;;;1.80;;
27113;SDS011;14648;49.730;8.614;2023-08-24T14:36:22;1.83;;;1.73;;
27113;SDS011;14648;49.730;8.614;2023-08-24T14:38:49;2.22;;;2.03;;
27113;SDS011;14648;49.730;8.614;2023-08-24T14:41:16;2.20;;;2.00;;
27113;SDS011;14648;49.730;8.614;2023-08-24T14:43:42;1.90;;;1.80;;
27113;SDS011;14648;49.730;8.614;2023-08-24T14:46:08;1.90;;;1.80;;
27113;SDS011;14648;49.730;8.614;2023-08-24T14:48:34;2.30;;;2.10;;
27113;SDS011;14648;49.730;8.614;2023-08-24T14:51:00;1.92;;;1.83;;
27113;SDS011;14648;49.730;8.614;2023-08-24T14:53:27;3.60;;;2.83;;
27113;SDS011;14648;49.730;8.614;2023-08-24T14:55:54;2.45;;;2.30;;
27113;SDS011;14648;49.730;8.614;2023-08-24T14:58:21;3.28;;;2.25;;
27113;SDS011;14648;49.730;8.614;2023-08-24T15:00:49;2.10;;;1.98;;
27113;SDS011;14648;49.730;8.614;2023-08-24T15:03:16;2.58;;;1.98;;